createdAt,value
2023-05-24T00:01:44.305Z,100296.69
2023-05-24T00:04:12.697Z,100305.56
2023-05-24T00:06:41.838Z,100308.94
2023-05-24T00:09:09.737Z,100314.69
2023-05-24T00:11:37.513Z,100308.78
2023-05-24T00:14:05.610Z,100304.34
2023-05-24T00:16:33.767Z,100306.22
2023-05-24T00:19:02.564Z,100316.06
2023-05-24T00:21:31.079Z,100315.06
2023-05-24T00:23:59.099Z,100310.47
2023-05-24T00:26:27.230Z,100316.75
2023-05-24T00:28:57.156Z,100311.31
2023-05-24T00:31:25.159Z,100306.06
2023-05-24T00:33:53.442Z,100315.59
2023-05-24T00:36:21.784Z,100310.13
2023-05-24T00:38:49.536Z,100310.63
2023-05-24T00:41:17.665Z,100307.91
2023-05-24T00:43:45.627Z,100302.47
2023-05-24T00:46:24.883Z,100305.56
2023-05-24T00:48:53.037Z,100312.50
2023-05-24T00:51:21.275Z,100323.22
2023-05-24T00:53:50.376Z,100307.91
2023-05-24T00:56:18.755Z,100311.66
2023-05-24T00:58:47.013Z,100315.75
2023-05-24T01:01:15.418Z,100312.16
2023-05-24T01:03:46.812Z,100312.16
2023-05-24T01:06:16.376Z,100318.13
2023-05-24T01:09:06.912Z,100316.91
2023-05-24T01:12:02.994Z,100308.41
2023-05-24T01:14:51.417Z,100314.19
2023-05-24T01:17:43.195Z,100302.47
2023-05-24T01:20:13.865Z,100309.63
2023-05-24T01:23:24.705Z,100304.53
2023-05-24T01:26:28.050Z,100306.06
2023-05-24T01:28:56.081Z,100304.34
2023-05-24T01:31:24.462Z,100306.41
2023-05-24T01:33:52.391Z,100301.97
2023-05-24T01:36:20.167Z,100303.16
2023-05-24T01:38:49.285Z,100304.00
2023-05-24T01:41:20.089Z,100297.19
2023-05-24T01:43:54.174Z,100296.53
2023-05-24T01:46:38.962Z,100296.84
2023-05-24T01:49:19.294Z,100287.16
2023-05-24T01:51:58.945Z,100285.78
2023-05-24T01:54:29.228Z,100297.50
2023-05-24T01:57:06.172Z,100296.16
2023-05-24T01:59:34.551Z,100295.84
2023-05-24T02:02:03.080Z,100298.88
2023-05-24T02:04:31.414Z,100301.09
2023-05-24T02:06:59.675Z,100309.97
2023-05-24T02:09:29.692Z,100303.34
2023-05-24T02:11:57.817Z,100305.03
2023-05-24T02:14:26.645Z,100295.66
2023-05-24T02:16:59.358Z,100305.72
2023-05-24T02:19:27.616Z,100300.44
2023-05-24T02:21:55.304Z,100297.53
2023-05-24T02:24:23.328Z,100310.63
2023-05-24T02:26:51.178Z,100306.53
2023-05-24T02:29:19.067Z,100314.19
2023-05-24T02:31:47.056Z,100315.91
2023-05-24T02:34:14.941Z,100319.31
2023-05-24T02:36:43.883Z,100329.50
2023-05-24T02:39:11.665Z,100332.53
2023-05-24T02:41:39.589Z,100336.47
2023-05-24T02:44:07.347Z,100331.69
2023-05-24T02:46:35.579Z,100347.69
2023-05-24T02:49:03.677Z,100342.91
2023-05-24T02:51:32.985Z,100338.78
2023-05-24T02:54:01.517Z,100339.41
2023-05-24T02:56:29.798Z,100344.09
2023-05-24T02:58:58.003Z,100340.63
2023-05-24T03:01:26.892Z,100339.72
2023-05-24T03:03:55.249Z,100338.66
2023-05-24T03:06:23.788Z,100345.03
2023-05-24T03:08:52.658Z,100343.50
2023-05-24T03:11:22.614Z,100344.38
2023-05-24T03:13:50.835Z,100337.25
2023-05-24T03:16:20.132Z,100342.75
2023-05-24T03:18:50.964Z,100343.75
2023-05-24T03:21:21.177Z,100342.84
2023-05-24T03:23:49.375Z,100343.38
2023-05-24T03:26:19.050Z,100343.59
2023-05-24T03:28:47.951Z,100342.31
2023-05-24T03:31:15.773Z,100344.41
2023-05-24T03:33:43.729Z,100350.50
2023-05-24T03:36:11.600Z,100336.84
2023-05-24T03:38:39.732Z,100352.19
2023-05-24T03:41:07.853Z,100346.78
2023-05-24T03:43:36.469Z,100343.63
2023-05-24T03:46:04.105Z,100357.56
2023-05-24T03:48:33.874Z,100345.84
2023-05-24T03:51:01.858Z,100347.03
2023-05-24T03:53:30.092Z,100333.78
2023-05-24T03:55:58.032Z,100322.84
2023-05-24T03:58:26.839Z,100318.88
2023-05-24T04:00:54.848Z,100322.75
2023-05-24T04:03:22.828Z,100326.25
2023-05-24T04:05:50.870Z,100341.03
2023-05-24T04:08:19.104Z,100344.63
2023-05-24T04:10:47.055Z,100354.84
2023-05-24T04:13:15.175Z,100352.97
2023-05-24T04:15:43.914Z,100348.66
2023-05-24T04:18:12.509Z,100361.47
2023-05-24T04:20:42.000Z,100363.28
2023-05-24T04:23:10.994Z,100358.19
2023-05-24T04:25:39.488Z,100355.69
2023-05-24T04:28:07.789Z,100356.25
2023-05-24T04:30:37.201Z,100347.97
2023-05-24T04:33:05.045Z,100348.38
2023-05-24T04:35:32.871Z,100354.59
2023-05-24T04:38:00.842Z,100350.59
2023-05-24T04:40:28.858Z,100350.56
2023-05-24T04:42:57.536Z,100360.50
2023-05-24T04:45:25.925Z,100346.41
2023-05-24T04:47:54.284Z,100344.00
2023-05-24T04:50:22.203Z,100351.16
2023-05-24T04:52:50.050Z,100346.19
2023-05-24T04:55:17.735Z,100355.25
2023-05-24T04:57:45.949Z,100358.16
2023-05-24T05:00:14.453Z,100357.41
2023-05-24T05:02:42.563Z,100358.41
2023-05-24T05:05:10.775Z,100360.44
2023-05-24T05:07:38.811Z,100366.63
2023-05-24T05:10:08.119Z,100365.28
2023-05-24T05:12:36.351Z,100363.53
2023-05-24T05:15:04.417Z,100363.59
2023-05-24T05:17:32.742Z,100355.81
2023-05-24T05:20:01.598Z,100356.41
2023-05-24T05:22:31.297Z,100353.22
2023-05-24T05:25:00.508Z,100366.00
2023-05-24T05:27:29.768Z,100380.09
2023-05-24T05:29:57.987Z,100388.72
2023-05-24T05:32:26.402Z,100387.25
2023-05-24T05:34:54.533Z,100391.47
2023-05-24T05:37:22.897Z,100398.53
2023-05-24T05:39:50.958Z,100393.66
2023-05-24T05:42:18.936Z,100387.78
2023-05-24T05:44:46.965Z,100387.78
2023-05-24T05:47:15.186Z,100371.72
2023-05-24T05:49:49.483Z,100367.75
2023-05-24T05:52:17.743Z,100372.88
2023-05-24T05:54:45.967Z,100371.50
2023-05-24T05:57:14.023Z,100372.50
2023-05-24T05:59:42.463Z,100376.53
2023-05-24T06:02:10.789Z,100378.91
2023-05-24T06:04:39.433Z,100383.75
2023-05-24T06:07:07.592Z,100385.31
2023-05-24T06:09:35.180Z,100390.34
2023-05-24T06:12:02.957Z,100380.91
2023-05-24T06:14:32.880Z,100395.22
2023-05-24T06:17:01.101Z,100394.19
2023-05-24T06:19:29.002Z,100389.13
2023-05-24T06:21:56.535Z,100393.63
2023-05-24T06:24:30.005Z,100400.22
2023-05-24T06:26:58.376Z,100393.78
2023-05-24T06:29:26.994Z,100395.69
2023-05-24T06:31:55.364Z,100404.00
2023-05-24T06:34:23.386Z,100402.66
2023-05-24T06:36:53.241Z,100404.47
2023-05-24T06:39:21.331Z,100402.25
2023-05-24T06:41:51.640Z,100404.19
2023-05-24T06:44:19.899Z,100408.69
2023-05-24T06:46:49.020Z,100411.81
2023-05-24T06:49:17.397Z,100405.41
2023-05-24T06:51:48.617Z,100405.31
2023-05-24T06:54:28.143Z,100404.88
2023-05-24T06:56:56.511Z,100404.75
2023-05-24T06:59:24.591Z,100413.25
2023-05-24T07:01:58.922Z,100403.88
2023-05-24T07:04:29.592Z,100402.72
2023-05-24T07:06:58.697Z,100401.34
2023-05-24T07:09:26.656Z,100390.91
2023-05-24T07:11:55.932Z,100396.06
2023-05-24T07:14:26.257Z,100392.41
2023-05-24T07:16:57.699Z,100391.75
2023-05-24T07:19:32.394Z,100390.78
2023-05-24T07:22:02.434Z,100390.41
2023-05-24T07:24:30.582Z,100384.03
2023-05-24T07:27:02.235Z,100377.16
2023-05-24T07:29:30.119Z,100378.34
2023-05-24T07:31:58.652Z,100377.94
2023-05-24T07:34:30.412Z,100385.47
2023-05-24T07:37:01.066Z,100387.41
2023-05-24T07:39:28.933Z,100385.22
2023-05-24T07:41:57.106Z,100385.59
2023-05-24T07:44:25.532Z,100391.84
2023-05-24T07:46:56.100Z,100394.53
2023-05-24T07:49:27.669Z,100389.22
2023-05-24T07:51:58.643Z,100382.75
2023-05-24T07:54:29.602Z,100384.34
2023-05-24T07:57:00.106Z,100393.88
2023-05-24T07:59:28.346Z,100386.16
2023-05-24T08:02:01.855Z,100392.66
2023-05-24T08:04:30.503Z,100382.47
2023-05-24T08:07:18.562Z,100391.50
2023-05-24T08:10:04.941Z,100390.56
2023-05-24T08:12:34.432Z,100386.94
2023-05-24T08:15:02.662Z,100374.94
2023-05-24T08:17:32.048Z,100373.34
2023-05-24T08:20:00.021Z,100370.84
2023-05-24T08:22:35.901Z,100371.16
2023-05-24T08:25:07.014Z,100378.59
2023-05-24T08:27:35.132Z,100377.50
2023-05-24T08:30:04.868Z,100377.38
2023-05-24T08:32:33.489Z,100374.63
2023-05-24T08:35:18.444Z,100372.53
2023-05-24T08:37:49.696Z,100378.97
2023-05-24T08:40:22.642Z,100377.28
2023-05-24T08:42:51.784Z,100383.03
2023-05-24T08:45:22.435Z,100378.41
2023-05-24T08:47:51.859Z,100374.16
2023-05-24T08:50:20.175Z,100364.44
2023-05-24T08:52:48.506Z,100363.59
2023-05-24T08:55:16.971Z,100363.34
2023-05-24T08:57:46.221Z,100367.50
2023-05-24T09:00:15.736Z,100365.28
2023-05-24T09:02:46.971Z,100370.72
2023-05-24T09:05:22.092Z,100376.16
2023-05-24T09:07:51.756Z,100373.56
2023-05-24T09:10:21.862Z,100363.34
2023-05-24T09:12:54.540Z,100359.84
2023-05-24T09:15:22.541Z,100366.44
2023-05-24T09:17:50.651Z,100349.13
2023-05-24T09:20:19.205Z,100357.94
2023-05-24T09:22:52.391Z,100368.94
2023-05-24T09:25:22.026Z,100354.09
2023-05-24T09:27:54.027Z,100362.59
2023-05-24T09:30:22.673Z,100366.13
2023-05-24T09:33:01.284Z,100357.16
2023-05-24T09:35:32.701Z,100356.38
2023-05-24T09:38:01.214Z,100356.31
2023-05-24T09:40:29.985Z,100353.81
2023-05-24T09:43:06.401Z,100346.28
2023-05-24T09:45:47.957Z,100355.19
2023-05-24T09:48:18.242Z,100348.63
2023-05-24T09:50:59.352Z,100347.34
2023-05-24T09:53:27.923Z,100357.06
2023-05-24T09:55:56.538Z,100352.22
2023-05-24T09:58:31.623Z,100360.84
2023-05-24T10:01:12.938Z,100375.41
2023-05-24T10:03:56.493Z,100378.97
2023-05-24T10:06:29.326Z,100380.19
2023-05-24T10:08:57.765Z,100384.25
2023-05-24T10:11:26.625Z,100399.16
2023-05-24T10:13:55.685Z,100395.34
2023-05-24T10:16:23.891Z,100391.44
2023-05-24T10:18:52.275Z,100395.00
2023-05-24T10:21:20.665Z,100398.91
2023-05-24T10:23:52.390Z,100396.34
2023-05-24T10:26:20.731Z,100409.41
2023-05-24T10:28:56.319Z,100408.69
2023-05-24T10:31:33.281Z,100415.56
2023-05-24T10:34:07.711Z,100413.94
2023-05-24T10:36:40.410Z,100412.91
2023-05-24T10:39:11.880Z,100416.50
2023-05-24T10:41:44.838Z,100418.34
2023-05-24T10:44:14.122Z,100421.63
2023-05-24T10:47:07.357Z,100419.38
2023-05-24T10:49:48.470Z,100420.03
2023-05-24T10:52:16.873Z,100417.91
2023-05-24T10:55:05.315Z,100408.22
2023-05-24T10:57:34.260Z,100411.97
2023-05-24T11:03:10.115Z,100397.69
2023-05-24T11:05:50.914Z,100399.44
2023-05-24T11:08:26.063Z,100389.03
2023-05-24T11:13:42.259Z,100387.50
2023-05-24T11:16:35.683Z,100377.41
2023-05-24T11:19:15.499Z,100388.63
2023-05-24T11:21:45.778Z,100383.53
2023-05-24T11:24:27.444Z,100381.75
2023-05-24T11:26:57.480Z,100376.72
2023-05-24T11:29:26.007Z,100377.75
2023-05-24T11:31:55.918Z,100382.34
2023-05-24T11:34:25.249Z,100382.56
2023-05-24T11:36:55.716Z,100373.56
2023-05-24T11:39:23.998Z,100375.03
2023-05-24T11:41:54.643Z,100377.16
2023-05-24T11:44:23.208Z,100374.63
2023-05-24T11:46:54.113Z,100366.59
2023-05-24T11:49:27.093Z,100365.47
2023-05-24T11:51:57.736Z,100362.69
2023-05-24T11:54:27.956Z,100368.78
2023-05-24T11:56:58.110Z,100363.50
2023-05-24T11:59:31.367Z,100353.72
2023-05-24T12:02:06.463Z,100349.47
2023-05-24T12:04:36.042Z,100350.97
2023-05-24T12:07:04.214Z,100360.41
2023-05-24T12:09:32.354Z,100360.22
2023-05-24T12:12:00.453Z,100353.78
2023-05-24T12:14:31.485Z,100358.03
2023-05-24T12:17:01.248Z,100358.78
2023-05-24T12:19:37.144Z,100344.50
2023-05-24T12:22:32.196Z,100350.97
2023-05-24T12:25:00.885Z,100355.97
2023-05-24T12:27:48.599Z,100348.28
2023-05-24T12:30:21.496Z,100344.31
2023-05-24T12:32:49.782Z,100351.03
2023-05-24T12:35:19.430Z,100346.41
2023-05-24T12:37:49.003Z,100344.72
2023-05-24T12:40:21.295Z,100346.56
2023-05-24T12:42:57.337Z,100343.13
2023-05-24T12:45:27.290Z,100344.88
2023-05-24T12:47:57.966Z,100341.69
2023-05-24T12:50:27.124Z,100331.31
2023-05-24T12:52:55.066Z,100331.53
2023-05-24T12:55:25.506Z,100325.72
2023-05-24T12:57:57.656Z,100324.78
2023-05-24T13:00:30.313Z,100325.50
2023-05-24T13:03:00.293Z,100315.28
2023-05-24T13:05:29.227Z,100318.88
2023-05-24T13:07:57.802Z,100330.16
2023-05-24T13:10:26.184Z,100329.78
2023-05-24T13:12:54.491Z,100330.75
2023-05-24T13:15:24.363Z,100339.03
2023-05-24T13:17:52.412Z,100326.94
2023-05-24T13:20:22.743Z,100334.91
2023-05-24T13:22:51.205Z,100332.16
2023-05-24T13:25:19.861Z,100336.16
2023-05-24T13:27:48.749Z,100331.81
2023-05-24T13:30:18.307Z,100335.44
2023-05-24T13:32:47.737Z,100332.91
2023-05-24T13:35:15.619Z,100335.72
2023-05-24T13:38:03.661Z,100331.25
2023-05-24T13:40:32.575Z,100330.81
2023-05-24T13:43:00.933Z,100330.00
2023-05-24T13:45:30.530Z,100337.91
2023-05-24T13:48:04.251Z,100336.09
2023-05-24T13:50:34.523Z,100335.53
2023-05-24T13:53:03.905Z,100332.59
2023-05-24T13:55:34.656Z,100334.28
2023-05-24T13:58:05.121Z,100342.09
2023-05-24T14:00:34.619Z,100337.59
2023-05-24T14:03:04.028Z,100332.69
2023-05-24T14:05:32.560Z,100343.63
2023-05-24T14:08:06.901Z,100338.38
2023-05-24T14:10:37.239Z,100346.09
2023-05-24T14:15:47.037Z,100344.00
2023-05-24T14:18:20.040Z,100349.50
2023-05-24T14:20:48.577Z,100350.56
2023-05-24T14:23:16.733Z,100352.84
2023-05-24T14:25:47.241Z,100347.56
2023-05-24T14:28:15.551Z,100341.44
2023-05-24T14:30:44.468Z,100342.09
2023-05-24T14:33:12.743Z,100348.19
2023-05-24T14:35:41.455Z,100345.06
2023-05-24T14:38:15.757Z,100337.47
2023-05-24T14:40:47.987Z,100330.63
2023-05-24T14:43:17.047Z,100330.38
2023-05-24T14:45:45.629Z,100329.88
2023-05-24T14:48:15.220Z,100318.91
2023-05-24T14:50:43.885Z,100324.41
2023-05-24T14:53:13.586Z,100325.06
2023-05-24T14:55:43.750Z,100324.84
2023-05-24T14:58:14.953Z,100334.03
2023-05-24T15:00:45.642Z,100336.28
2023-05-24T15:03:14.931Z,100335.94
2023-05-24T15:05:44.464Z,100343.22
2023-05-24T15:08:13.480Z,100343.47
2023-05-24T15:10:44.090Z,100350.50
2023-05-24T15:13:13.626Z,100339.69
2023-05-24T15:15:42.518Z,100343.47
2023-05-24T15:18:10.874Z,100340.25
2023-05-24T15:20:39.473Z,100339.34
2023-05-24T15:23:11.082Z,100346.50
2023-05-24T15:25:39.227Z,100349.66
2023-05-24T15:28:07.589Z,100341.84
2023-05-24T15:30:35.715Z,100342.34
2023-05-24T15:33:03.523Z,100344.09
2023-05-24T15:35:31.601Z,100352.38
2023-05-24T15:37:59.817Z,100357.06
2023-05-24T15:40:30.961Z,100360.03
2023-05-24T15:42:59.072Z,100361.72
2023-05-24T15:45:27.122Z,100349.88
2023-05-24T15:48:02.423Z,100355.59
2023-05-24T15:50:49.304Z,100343.94
2023-05-24T15:53:21.696Z,100343.06
2023-05-24T15:55:50.354Z,100344.94
2023-05-24T15:58:18.911Z,100338.59
2023-05-24T16:00:46.921Z,100339.88
2023-05-24T16:03:16.129Z,100330.38
2023-05-24T16:05:44.347Z,100334.59
2023-05-24T16:08:14.230Z,100328.25
2023-05-24T16:10:44.636Z,100330.59
2023-05-24T16:13:12.703Z,100328.03
2023-05-24T16:15:42.834Z,100329.75
2023-05-24T16:18:10.925Z,100335.00
2023-05-24T16:20:39.276Z,100338.81
2023-05-24T16:23:06.904Z,100340.06
2023-05-24T16:25:35.526Z,100337.13
2023-05-24T16:28:04.245Z,100339.22
2023-05-24T16:30:32.119Z,100336.91
2023-05-24T16:33:01.616Z,100338.13
2023-05-24T16:35:30.121Z,100338.94
2023-05-24T16:37:58.266Z,100340.81
2023-05-24T16:40:27.105Z,100343.75
2023-05-24T16:42:55.582Z,100340.56
2023-05-24T16:45:23.223Z,100348.75
2023-05-24T16:47:51.635Z,100351.00
2023-05-24T16:50:19.531Z,100350.34
2023-05-24T16:52:47.718Z,100353.44
2023-05-24T16:55:18.945Z,100358.69
2023-05-24T16:57:52.117Z,100366.44
2023-05-24T17:00:20.638Z,100369.28
2023-05-24T17:02:49.017Z,100365.44
2023-05-24T17:05:17.162Z,100366.22
2023-05-24T17:07:45.790Z,100365.50
2023-05-24T17:10:14.132Z,100356.78
2023-05-24T17:12:44.147Z,100359.84
2023-05-24T17:15:12.470Z,100366.31
2023-05-24T17:17:40.515Z,100372.13
2023-05-24T17:20:09.370Z,100368.88
2023-05-24T17:22:38.077Z,100376.56
2023-05-24T17:25:06.739Z,100385.75
2023-05-24T17:27:35.752Z,100377.22
2023-05-24T17:30:04.694Z,100389.81
2023-05-24T17:32:33.204Z,100383.31
2023-05-24T17:35:01.534Z,100395.03
2023-05-24T17:37:29.919Z,100397.31
2023-05-24T17:39:57.726Z,100399.09
2023-05-24T17:42:26.042Z,100396.38
2023-05-24T17:44:54.317Z,100396.38
2023-05-24T17:47:22.601Z,100392.00
2023-05-24T17:49:53.477Z,100393.13
2023-05-24T17:52:21.566Z,100400.09
2023-05-24T17:54:49.652Z,100403.69
2023-05-24T17:57:17.880Z,100397.34
2023-05-24T17:59:45.889Z,100395.41
2023-05-24T18:02:14.112Z,100396.00
2023-05-24T18:04:41.658Z,100402.03
2023-05-24T18:07:09.653Z,100406.00
2023-05-24T18:09:39.150Z,100416.47
2023-05-24T18:12:07.825Z,100423.19
2023-05-24T18:14:36.206Z,100419.31
2023-05-24T18:17:04.877Z,100421.56
2023-05-24T18:19:33.146Z,100428.28
2023-05-24T18:22:00.935Z,100424.88
2023-05-24T18:24:28.826Z,100426.78
2023-05-24T18:26:56.900Z,100436.88
2023-05-24T18:29:24.985Z,100434.03
2023-05-24T18:31:53.658Z,100438.84
2023-05-24T18:34:21.573Z,100443.84
2023-05-24T18:36:50.252Z,100447.63
2023-05-24T18:39:19.307Z,100452.72
2023-05-24T18:41:47.295Z,100454.63
2023-05-24T18:44:18.554Z,100461.31
2023-05-24T18:46:46.239Z,100457.03
2023-05-24T18:49:14.879Z,100469.03
2023-05-24T18:51:45.255Z,100462.34
2023-05-24T18:54:14.039Z,100458.94
2023-05-24T18:56:42.732Z,100458.38
2023-05-24T18:59:12.432Z,100457.03
2023-05-24T19:01:41.089Z,100459.41
2023-05-24T19:04:10.074Z,100455.84
2023-05-24T19:06:39.121Z,100455.84
2023-05-24T19:09:07.800Z,100451.56
2023-05-24T19:11:39.413Z,100454.31
2023-05-24T19:14:07.762Z,100449.88
2023-05-24T19:16:36.166Z,100444.13
2023-05-24T19:19:04.366Z,100444.50
2023-05-24T19:21:33.403Z,100448.28
2023-05-24T19:24:01.136Z,100441.28
2023-05-24T19:26:29.188Z,100448.84
2023-05-24T19:28:56.727Z,100449.38
2023-05-24T19:31:25.551Z,100447.38
2023-05-24T19:34:00.319Z,100454.06
2023-05-24T19:36:50.252Z,100445.41
2023-05-24T19:39:18.466Z,100453.13
2023-05-24T19:41:46.445Z,100458.28
2023-05-24T19:44:14.575Z,100451.28
2023-05-24T19:46:42.724Z,100449.13
2023-05-24T19:49:12.516Z,100442.31
2023-05-24T19:51:40.455Z,100441.19
2023-05-24T19:54:11.541Z,100440.69
2023-05-24T19:56:41.032Z,100442.09
2023-05-24T19:59:09.132Z,100438.41
2023-05-24T20:01:37.204Z,100439.16
2023-05-24T20:04:05.425Z,100441.09
2023-05-24T20:06:33.726Z,100447.47
2023-05-24T20:09:02.220Z,100448.31
2023-05-24T20:11:30.778Z,100439.84
2023-05-24T20:13:59.305Z,100443.25
2023-05-24T20:16:27.666Z,100450.31
2023-05-24T20:18:55.698Z,100443.25
2023-05-24T20:21:23.796Z,100431.34
2023-05-24T20:23:57.609Z,100439.72
2023-05-24T20:26:26.921Z,100445.19
2023-05-24T20:28:55.134Z,100439.38
2023-05-24T20:31:23.332Z,100447.16
2023-05-24T20:33:52.080Z,100450.25
2023-05-24T20:36:19.960Z,100452.25
2023-05-24T20:38:49.315Z,100454.63
2023-05-24T20:41:18.302Z,100451.34
2023-05-24T20:43:47.184Z,100453.72
2023-05-24T20:46:15.200Z,100450.56
2023-05-24T20:48:46.862Z,100456.88
2023-05-24T20:51:19.491Z,100448.03
2023-05-24T20:53:49.489Z,100441.53
2023-05-24T20:56:18.155Z,100457.06
2023-05-24T20:58:46.816Z,100456.03
2023-05-24T21:01:16.912Z,100450.75
2023-05-24T21:03:45.779Z,100444.59
2023-05-24T21:06:13.618Z,100457.06
2023-05-24T21:08:42.994Z,100447.00
2023-05-24T21:11:13.898Z,100446.13
2023-05-24T21:13:41.732Z,100450.47
2023-05-24T21:16:09.901Z,100449.97
2023-05-24T21:18:38.917Z,100450.13
2023-05-24T21:21:08.788Z,100457.31
2023-05-24T21:23:37.777Z,100449.47
2023-05-24T21:26:05.755Z,100445.88
2023-05-24T21:28:34.176Z,100443.31
2023-05-24T21:31:02.098Z,100441.13
2023-05-24T21:33:30.285Z,100443.00
2023-05-24T21:35:58.783Z,100432.63
2023-05-24T21:38:30.787Z,100421.59
2023-05-24T21:40:58.683Z,100423.34
2023-05-24T21:43:26.492Z,100424.72
2023-05-24T21:45:54.620Z,100423.56
2023-05-24T21:48:22.479Z,100422.69
2023-05-24T21:50:50.610Z,100424.47
2023-05-24T21:53:19.456Z,100431.28
2023-05-24T21:55:47.073Z,100432.16
2023-05-24T21:58:15.377Z,100426.56
2023-05-24T22:00:43.752Z,100437.84
2023-05-24T22:03:12.017Z,100435.28
2023-05-24T22:05:39.634Z,100433.38
2023-05-24T22:08:07.645Z,100430.31
2023-05-24T22:10:36.454Z,100429.81
2023-05-24T22:13:04.954Z,100434.09
2023-05-24T22:15:32.604Z,100422.38
2023-05-24T22:18:03.766Z,100426.66
2023-05-24T22:20:32.490Z,100426.81
2023-05-24T22:23:01.187Z,100428.56
2023-05-24T22:25:30.227Z,100433.50
2023-05-24T22:27:58.617Z,100431.28
2023-05-24T22:30:26.774Z,100436.03
2023-05-24T22:32:54.445Z,100435.53
2023-05-24T22:35:24.316Z,100441.16
2023-05-24T22:37:52.413Z,100430.97
2023-05-24T22:40:21.005Z,100430.47
2023-05-24T22:42:49.126Z,100433.34
2023-05-24T22:45:17.133Z,100428.41
2023-05-24T22:47:44.971Z,100434.22
2023-05-24T22:50:14.894Z,100438.13
2023-05-24T22:52:43.379Z,100439.31
2023-05-24T22:55:11.591Z,100441.88
2023-05-24T22:57:39.764Z,100433.38
2023-05-24T23:00:08.670Z,100436.09
2023-05-24T23:02:36.809Z,100445.28
2023-05-24T23:05:05.983Z,100442.22
2023-05-24T23:07:34.361Z,100442.22
2023-05-24T23:10:03.437Z,100450.91
2023-05-24T23:12:31.804Z,100446.97
2023-05-24T23:14:59.708Z,100462.97
2023-05-24T23:17:27.859Z,100452.94
2023-05-24T23:19:55.497Z,100462.78
2023-05-24T23:22:24.370Z,100462.47
2023-05-24T23:24:52.832Z,100456.03
2023-05-24T23:27:20.958Z,100453.97
2023-05-24T23:29:49.034Z,100451.06
2023-05-24T23:32:20.047Z,100457.84
2023-05-24T23:34:47.926Z,100451.41
2023-05-24T23:37:16.119Z,100463.16
2023-05-24T23:39:44.430Z,100464.16
2023-05-24T23:42:12.520Z,100457.34
2023-05-24T23:44:40.930Z,100469.97
2023-05-24T23:47:09.332Z,100459.91
2023-05-24T23:49:38.567Z,100472.84
2023-05-24T23:52:07.347Z,100465.69
2023-05-24T23:54:35.454Z,100472.50
2023-05-24T23:57:04.359Z,100479.50
2023-05-24T23:59:33.449Z,100479.84
